F/V Le Mirador — FPHO — position and weather

sailwx.info

Track history (hours):
 
Tides and Currents Weather Stations Pressure Air Temp Water Temp Dewpoint Dewpoint Depression Visibility Wind Speed Wind Dir Waves Ship Positions

F/V Le Mirador

Last reported at 2014-Dec-21 18:05 UTC. Time now 2014-Dec-22 07:46 UTC.
Position N 46°42' W 002°16'.

Length 19 m; draft 2.8 m.

Type: Fishing. MMSI: 227901000.

Date/timePositionNaut miles runAvg speedWind from/ knotsBaromVisibWave heightAir tempDewpointWater temp
2014-Dec-21 18:05N 46°42' W 002°16'6 9.6
2014-Dec-21 17:30N 46°39' W 002°10'9 9.7
2014-Dec-21 16:33N 46°33' W 001°59'9 9.2
2014-Dec-21 15:33N 46°29' W 001°48'1 1.1
2014-Dec-21 14:34N 46°30' W 001°47'0 0.0
2014-Dec-21 13:33N 46°30' W 001°47'8 8.2
2014-Dec-21 12:33N 46°25' W 001°56'11 9.9
2014-Dec-21 11:27N 46°19' W 002°10'28 2.1
2014-Dec-20 22:16N 46°03' W 002°43'0 0.1
2014-Dec-20 20:21N 46°03' W 002°43'0 0.2
2014-Dec-20 18:21N 46°03' W 002°43'37 1.0
2014-Dec-19 03:30N 45°33' W 002°12'46 0.9
2014-Dec-16 23:31N 46°17' W 001°54'7 7.6
2014-Dec-16 22:34N 46°24' W 001°50'6 5.9
2014-Dec-16 21:34N 46°30' W 001°47'0 0.2
2014-Dec-16 20:34N 46°30' W 001°47'6 6.1
2014-Dec-16 19:34N 46°24' W 001°50'  
2014-Dec-13 08:12N 46°09' W 001°58'5 6.9
2014-Dec-13 07:33N 46°13' W 001°55'7 6.6
2014-Dec-13 06:33N 46°20' W 001°52'7 6.6
2014-Dec-13 05:34N 46°26' W 001°49'4 4.1
2014-Dec-13 04:33N 46°30' W 001°47'0 0.0
2014-Dec-12 15:26N 46°30' W 001°47'0 0.0
2014-Dec-12 14:33N 46°30' W 001°47'0 0.0
2014-Dec-12 13:33N 46°30' W 001°47'0 0.0
2014-Dec-12 12:33N 46°30' W 001°47'0 0.0
2014-Dec-12 11:33N 46°30' W 001°47'0 0.0
2014-Dec-12 10:33N 46°30' W 001°47'2 2.2
2014-Dec-12 09:33N 46°28' W 001°48'8 7.7
2014-Dec-12 08:33N 46°20' W 001°51'  
Track history (hours):
 
Tides and Currents Weather Stations Pressure Air Temp Water Temp Dewpoint Dewpoint Depression Visibility Wind Speed Wind Dir Waves Ship Positions

F/V Le Mirador

Last reported at 2014-Dec-21 18:05 UTC. Time now 2014-Dec-22 07:46 UTC.
Position N 46°42' W 002°16'.

Length 19 m; draft 2.8 m.

Type: Fishing. MMSI: 227901000.

Date/timePositionNaut miles runAvg speedWind from/ knotsBaromVisibWave heightAir tempDewpointWater temp
2014-Dec-21 18:05N 46°42' W 002°16'6 9.6
2014-Dec-21 17:30N 46°39' W 002°10'9 9.7
2014-Dec-21 16:33N 46°33' W 001°59'9 9.2
2014-Dec-21 15:33N 46°29' W 001°48'1 1.1
2014-Dec-21 14:34N 46°30' W 001°47'0 0.0
2014-Dec-21 13:33N 46°30' W 001°47'8 8.2
2014-Dec-21 12:33N 46°25' W 001°56'11 9.9
2014-Dec-21 11:27N 46°19' W 002°10'28 2.1
2014-Dec-20 22:16N 46°03' W 002°43'0 0.1
2014-Dec-20 20:21N 46°03' W 002°43'0 0.2
2014-Dec-20 18:21N 46°03' W 002°43'37 1.0
2014-Dec-19 03:30N 45°33' W 002°12'46 0.9
2014-Dec-16 23:31N 46°17' W 001°54'7 7.6
2014-Dec-16 22:34N 46°24' W 001°50'6 5.9
2014-Dec-16 21:34N 46°30' W 001°47'0 0.2
2014-Dec-16 20:34N 46°30' W 001°47'6 6.1
2014-Dec-16 19:34N 46°24' W 001°50'  
2014-Dec-13 08:12N 46°09' W 001°58'5 6.9
2014-Dec-13 07:33N 46°13' W 001°55'7 6.6
2014-Dec-13 06:33N 46°20' W 001°52'7 6.6
2014-Dec-13 05:34N 46°26' W 001°49'4 4.1
2014-Dec-13 04:33N 46°30' W 001°47'0 0.0
2014-Dec-12 15:26N 46°30' W 001°47'0 0.0
2014-Dec-12 14:33N 46°30' W 001°47'0 0.0
2014-Dec-12 13:33N 46°30' W 001°47'0 0.0
2014-Dec-12 12:33N 46°30' W 001°47'0 0.0
2014-Dec-12 11:33N 46°30' W 001°47'0 0.0
2014-Dec-12 10:33N 46°30' W 001°47'2 2.2
2014-Dec-12 09:33N 46°28' W 001°48'8 7.7
2014-Dec-12 08:33N 46°20' W 001°51'  

Dump ship's entire track history